createdAt,value
2023-04-20T00:01:11.518Z,64.12
2023-04-20T00:03:45.890Z,64.22
2023-04-20T00:06:22.171Z,64.22
2023-04-20T00:08:56.405Z,64.25
2023-04-20T00:11:30.507Z,64.23
2023-04-20T00:14:04.613Z,64.25
2023-04-20T00:16:38.544Z,64.24
2023-04-20T00:19:12.473Z,64.30
2023-04-20T00:21:46.724Z,64.50
2023-04-20T00:24:20.335Z,64.64
2023-04-20T00:26:55.291Z,64.72
2023-04-20T00:29:29.027Z,64.84
2023-04-20T00:32:04.584Z,64.77
2023-04-20T00:34:38.227Z,64.93
2023-04-20T00:37:25.976Z,65.06
2023-04-20T00:40:00.748Z,65.01
2023-04-20T00:42:40.990Z,65.06
2023-04-20T00:45:15.984Z,65.03
2023-04-20T00:47:50.342Z,65.06
2023-04-20T00:50:24.547Z,64.98
2023-04-20T00:52:58.412Z,64.95
2023-04-20T00:55:33.689Z,64.89
2023-04-20T00:58:07.899Z,64.83
2023-04-20T01:00:42.187Z,65.00
2023-04-20T01:03:17.256Z,64.96
2023-04-20T01:05:53.337Z,65.03
2023-04-20T01:08:31.640Z,65.03
2023-04-20T01:11:05.426Z,65.07
2023-04-20T01:13:39.214Z,65.11
2023-04-20T01:16:13.087Z,65.15
2023-04-20T01:18:48.666Z,65.16
2023-04-20T01:21:24.208Z,65.12
2023-04-20T01:23:59.087Z,65.13
2023-04-20T01:26:33.238Z,65.05
2023-04-20T01:29:06.859Z,65.12
2023-04-20T01:31:40.775Z,65.17
2023-04-20T01:34:15.588Z,65.09
2023-04-20T01:36:49.495Z,64.90
2023-04-20T01:39:23.216Z,65.04
2023-04-20T01:41:56.901Z,65.12
2023-04-20T01:44:31.749Z,65.02
2023-04-20T01:47:06.638Z,65.05
2023-04-20T01:49:47.861Z,65.00
2023-04-20T01:52:21.758Z,64.84
2023-04-20T01:54:55.705Z,64.96
2023-04-20T01:57:31.578Z,64.89
2023-04-20T02:00:05.896Z,65.01
2023-04-20T02:02:48.020Z,65.07
2023-04-20T02:05:22.810Z,64.95
2023-04-20T02:07:57.111Z,64.79
2023-04-20T02:10:31.031Z,64.88
2023-04-20T02:13:05.203Z,64.98
2023-04-20T02:15:39.152Z,65.03
2023-04-20T02:18:13.023Z,64.83
2023-04-20T02:20:47.428Z,64.87
2023-04-20T02:23:21.142Z,64.74
2023-04-20T02:25:55.254Z,64.80
2023-04-20T02:28:28.989Z,64.77
2023-04-20T02:31:02.601Z,64.76
2023-04-20T02:33:36.620Z,64.67
2023-04-20T02:36:11.738Z,64.79
2023-04-20T02:38:47.147Z,64.76
2023-04-20T02:41:20.983Z,64.63
2023-04-20T02:43:55.028Z,64.57
2023-04-20T02:46:28.847Z,64.61
2023-04-20T02:49:03.933Z,64.60
2023-04-20T02:51:38.758Z,64.68
2023-04-20T02:54:12.535Z,64.75
2023-04-20T02:56:46.462Z,64.81
2023-04-20T02:59:20.251Z,64.79
2023-04-20T03:02:13.436Z,64.83
2023-04-20T03:04:49.141Z,64.87
2023-04-20T03:07:26.518Z,64.92
2023-04-20T03:10:03.878Z,64.80
2023-04-20T03:13:03.673Z,64.81
2023-04-20T03:15:42.401Z,64.81
2023-04-20T03:18:36.863Z,64.87
2023-04-20T03:21:10.623Z,64.93
2023-04-20T03:23:44.843Z,64.91
2023-04-20T03:26:19.149Z,64.91
2023-04-20T03:29:02.427Z,64.90
2023-04-20T03:31:43.736Z,64.92
2023-04-20T03:34:17.506Z,64.83
2023-04-20T03:36:52.020Z,64.90
2023-04-20T03:39:25.699Z,64.92
2023-04-20T03:41:59.641Z,64.90
2023-04-20T03:44:33.342Z,64.91
2023-04-20T03:47:06.982Z,64.94
2023-04-20T03:49:41.064Z,64.85
2023-04-20T03:52:15.314Z,64.86
2023-04-20T03:54:49.063Z,64.85
2023-04-20T03:57:23.561Z,64.96
2023-04-20T03:59:57.487Z,64.94
2023-04-20T04:02:32.485Z,64.99
2023-04-20T04:05:08.034Z,64.93
2023-04-20T04:07:42.175Z,65.00
2023-04-20T04:10:18.254Z,64.94
2023-04-20T04:12:52.099Z,64.92
2023-04-20T04:15:25.818Z,64.93
2023-04-20T04:18:06.050Z,64.95
2023-04-20T04:20:40.368Z,64.89
2023-04-20T04:23:15.716Z,64.88
2023-04-20T04:25:53.127Z,64.92
2023-04-20T04:28:30.213Z,64.94
2023-04-20T04:31:13.085Z,64.92
2023-04-20T04:33:47.067Z,64.84
2023-04-20T04:36:29.922Z,64.97
2023-04-20T04:39:31.859Z,64.97
2023-04-20T04:42:13.312Z,64.77
2023-04-20T04:44:49.284Z,64.66
2023-04-20T04:47:30.011Z,64.62
2023-04-20T04:50:06.215Z,64.58
2023-04-20T04:52:40.313Z,64.43
2023-04-20T04:55:16.268Z,64.31
2023-04-20T04:57:50.541Z,64.11
2023-04-20T05:00:25.703Z,64.07
2023-04-20T05:03:00.039Z,64.04
2023-04-20T05:05:33.808Z,64.02
2023-04-20T05:08:07.801Z,63.90
2023-04-20T05:10:41.865Z,63.58
2023-04-20T05:13:15.628Z,63.46
2023-04-20T05:15:49.214Z,63.54
2023-04-20T05:18:23.611Z,63.40
2023-04-20T05:20:57.870Z,63.35
2023-04-20T05:23:31.715Z,63.13
2023-04-20T05:26:05.835Z,62.92
2023-04-20T05:28:43.163Z,62.77
2023-04-20T05:31:16.935Z,62.73
2023-04-20T05:33:50.725Z,62.74
2023-04-20T05:36:24.476Z,62.42
2023-04-20T05:38:58.222Z,62.53
2023-04-20T05:41:32.168Z,62.25
2023-04-20T05:44:05.918Z,62.22
2023-04-20T05:46:39.701Z,62.67
2023-04-20T05:49:13.661Z,63.14
2023-04-20T05:51:47.675Z,63.10
2023-04-20T05:54:21.692Z,62.42
2023-04-20T05:56:55.654Z,61.18
2023-04-20T05:59:30.289Z,58.29
2023-04-20T06:02:03.934Z,55.95
2023-04-20T06:04:38.868Z,55.37
2023-04-20T06:07:12.916Z,54.98
2023-04-20T06:09:46.374Z,54.83
2023-04-20T06:12:20.786Z,55.24
2023-04-20T06:14:55.020Z,55.57
2023-04-20T06:17:28.686Z,55.73
2023-04-20T06:20:02.482Z,53.90
2023-04-20T06:22:36.602Z,52.44
2023-04-20T06:25:11.841Z,50.88
2023-04-20T06:27:45.680Z,49.11
2023-04-20T06:30:20.061Z,47.14
2023-04-20T06:32:53.941Z,45.17
2023-04-20T06:35:28.024Z,44.87
2023-04-20T06:38:02.857Z,45.59
2023-04-20T06:40:36.644Z,44.28
2023-04-20T06:43:10.740Z,42.92
2023-04-20T06:45:44.372Z,41.83
2023-04-20T06:48:31.650Z,40.11
2023-04-20T06:51:17.560Z,38.62
2023-04-20T06:53:52.002Z,37.36
2023-04-20T06:56:25.937Z,35.68
2023-04-20T06:58:59.541Z,33.37
2023-04-20T07:01:33.429Z,32.45
2023-04-20T07:04:07.349Z,31.78
2023-04-20T07:06:41.650Z,31.38
2023-04-20T07:09:15.564Z,31.07
2023-04-20T07:12:09.709Z,30.00
2023-04-20T07:14:44.164Z,29.11
2023-04-20T07:17:31.050Z,28.71
2023-04-20T07:20:07.725Z,27.65
2023-04-20T07:22:42.113Z,27.20
2023-04-20T07:25:15.690Z,27.07
2023-04-20T07:27:49.451Z,26.41
2023-04-20T07:30:23.122Z,26.42
2023-04-20T07:32:56.868Z,26.15
2023-04-20T07:35:30.819Z,26.01
2023-04-20T07:38:04.420Z,24.96
2023-04-20T07:40:38.441Z,24.81
2023-04-20T07:43:12.169Z,24.58
2023-04-20T07:45:46.289Z,24.18
2023-04-20T07:48:19.723Z,23.54
2023-04-20T07:50:53.388Z,23.55
2023-04-20T07:53:27.253Z,23.14
2023-04-20T07:56:01.525Z,23.19
2023-04-20T07:58:35.386Z,23.09
2023-04-20T08:01:09.229Z,23.34
2023-04-20T08:03:43.391Z,23.46
2023-04-20T08:06:17.439Z,23.92
2023-04-20T08:08:50.938Z,23.84
2023-04-20T08:11:25.458Z,24.05
2023-04-20T08:13:59.115Z,23.89
2023-04-20T08:16:33.088Z,23.47
2023-04-20T08:19:10.820Z,23.62
2023-04-20T08:21:43.167Z,22.29
2023-04-20T08:24:17.366Z,21.65
2023-04-20T08:26:51.693Z,21.86
2023-04-20T08:29:25.226Z,22.49
2023-04-20T08:31:59.037Z,22.84
2023-04-20T08:34:32.962Z,23.78
2023-04-20T08:37:07.691Z,24.10
2023-04-20T08:39:41.746Z,22.83
2023-04-20T08:42:17.324Z,22.74
2023-04-20T08:45:12.742Z,22.02
2023-04-20T08:47:46.880Z,20.70
2023-04-20T08:50:22.576Z,20.80
2023-04-20T08:52:57.036Z,20.51
2023-04-20T08:55:39.938Z,20.18
2023-04-20T08:58:13.929Z,19.92
2023-04-20T09:00:51.572Z,20.19
2023-04-20T09:03:37.181Z,20.88
2023-04-20T09:06:18.280Z,20.50
2023-04-20T09:08:52.453Z,20.16
2023-04-20T09:11:30.600Z,20.85
2023-04-20T09:14:07.294Z,21.25
2023-04-20T09:16:50.743Z,20.11
2023-04-20T09:19:28.526Z,20.44
2023-04-20T09:22:05.546Z,20.27
2023-04-20T09:24:41.207Z,20.09
2023-04-20T09:27:23.054Z,20.24
2023-04-20T09:30:04.241Z,20.07
2023-04-20T09:32:38.089Z,19.95
2023-04-20T09:35:13.150Z,20.98
2023-04-20T09:37:52.818Z,21.65
2023-04-20T09:40:30.409Z,22.12
2023-04-20T09:43:11.953Z,22.52
2023-04-20T09:45:47.951Z,23.73
2023-04-20T09:48:22.608Z,23.70
2023-04-20T09:50:57.180Z,23.23
2023-04-20T09:53:32.717Z,22.72
2023-04-20T09:56:10.319Z,22.70
2023-04-20T09:58:44.907Z,22.10
2023-04-20T10:01:18.977Z,21.40
2023-04-20T10:03:54.586Z,20.62
2023-04-20T10:06:38.611Z,20.35
2023-04-20T10:09:22.578Z,19.16
2023-04-20T10:12:07.156Z,18.45
2023-04-20T10:14:41.400Z,19.38
2023-04-20T10:17:15.269Z,17.89
2023-04-20T10:19:49.739Z,17.00
2023-04-20T10:22:34.377Z,16.82
2023-04-20T10:25:20.840Z,17.13
2023-04-20T10:27:59.554Z,17.66
2023-04-20T10:30:34.124Z,17.23
2023-04-20T10:33:12.268Z,17.54
2023-04-20T10:35:48.800Z,17.72
2023-04-20T10:38:34.099Z,17.88
2023-04-20T10:41:11.555Z,18.78
2023-04-20T10:43:45.416Z,19.25
2023-04-20T10:46:24.076Z,19.64
2023-04-20T10:48:59.373Z,19.93
2023-04-20T10:51:33.468Z,20.25
2023-04-20T10:54:11.789Z,20.41
2023-04-20T10:56:46.983Z,19.86
2023-04-20T10:59:22.556Z,20.36
2023-04-20T11:01:56.941Z,20.76
2023-04-20T11:04:37.500Z,20.19
2023-04-20T11:07:14.173Z,18.69
2023-04-20T11:09:55.544Z,18.79
2023-04-20T11:12:41.903Z,18.48
2023-04-20T11:15:16.730Z,18.41
2023-04-20T11:17:50.216Z,18.42
2023-04-20T11:20:23.795Z,19.01
2023-04-20T11:23:01.421Z,17.99
2023-04-20T11:25:53.012Z,17.41
2023-04-20T11:28:31.099Z,17.29
2023-04-20T11:31:05.679Z,17.40
2023-04-20T11:33:39.579Z,17.52
2023-04-20T11:36:22.659Z,18.07
2023-04-20T11:38:56.316Z,18.32
2023-04-20T11:41:42.780Z,18.83
2023-04-20T11:44:21.313Z,18.86
2023-04-20T11:46:57.735Z,18.53
2023-04-20T11:49:32.454Z,17.57
2023-04-20T11:52:06.890Z,17.75
2023-04-20T11:54:41.831Z,18.03
2023-04-20T11:57:15.609Z,18.89
2023-04-20T11:59:49.646Z,19.24
2023-04-20T12:02:23.917Z,19.01
2023-04-20T12:04:58.153Z,19.10
2023-04-20T12:07:32.005Z,19.34
2023-04-20T12:10:05.758Z,19.94
2023-04-20T12:12:39.550Z,20.20
2023-04-20T12:15:14.490Z,20.25
2023-04-20T12:17:48.621Z,20.81
2023-04-20T12:20:22.272Z,21.47
2023-04-20T12:22:57.228Z,20.89
2023-04-20T12:25:33.018Z,20.11
2023-04-20T12:28:27.391Z,19.74
2023-04-20T12:31:01.289Z,19.77
2023-04-20T12:33:37.855Z,19.24
2023-04-20T12:36:12.340Z,19.65
2023-04-20T12:38:48.343Z,19.80
2023-04-20T12:41:23.218Z,20.25
2023-04-20T12:43:57.093Z,20.82
2023-04-20T12:46:30.880Z,21.33
2023-04-20T12:49:04.822Z,21.98
2023-04-20T12:51:38.825Z,22.02
2023-04-20T12:54:13.040Z,22.20
2023-04-20T12:56:47.055Z,22.10
2023-04-20T12:59:21.036Z,21.14
2023-04-20T13:01:54.534Z,21.16
2023-04-20T13:04:29.535Z,20.76
2023-04-20T13:07:03.358Z,19.44
2023-04-20T13:09:37.664Z,19.36
2023-04-20T13:12:11.742Z,19.96
2023-04-20T13:14:45.164Z,20.34
2023-04-20T13:17:19.090Z,20.62
2023-04-20T13:19:53.587Z,21.10
2023-04-20T13:22:27.371Z,21.85
2023-04-20T13:25:01.162Z,22.37
2023-04-20T13:27:34.782Z,21.70
2023-04-20T13:30:10.422Z,21.81
2023-04-20T13:32:44.273Z,21.94
2023-04-20T13:35:18.366Z,22.14
2023-04-20T13:37:52.119Z,22.28
2023-04-20T13:40:26.080Z,22.58
2023-04-20T13:42:59.828Z,23.01
2023-04-20T13:45:33.872Z,23.30
2023-04-20T13:48:07.427Z,23.55
2023-04-20T13:50:41.158Z,23.56
2023-04-20T13:53:14.825Z,23.22
2023-04-20T13:55:49.054Z,23.60
2023-04-20T13:58:22.895Z,23.42
2023-04-20T14:00:56.761Z,23.32
2023-04-20T14:03:30.785Z,22.86
2023-04-20T14:06:04.695Z,23.15
2023-04-20T14:08:38.498Z,23.19
2023-04-20T14:11:11.929Z,23.28
2023-04-20T14:13:46.080Z,23.46
2023-04-20T14:16:23.205Z,23.25
2023-04-20T14:18:57.180Z,23.25
2023-04-20T14:21:30.715Z,23.36
2023-04-20T14:24:05.009Z,23.45
2023-04-20T14:26:38.887Z,23.47
2023-04-20T14:29:12.690Z,23.52
2023-04-20T14:31:46.313Z,23.81
2023-04-20T14:34:20.326Z,23.67
2023-04-20T14:36:54.138Z,23.73
2023-04-20T14:39:27.779Z,23.76
2023-04-20T14:42:02.103Z,23.65
2023-04-20T14:44:35.829Z,23.64
2023-04-20T14:47:10.104Z,23.71
2023-04-20T14:49:44.883Z,23.70
2023-04-20T14:52:19.106Z,23.62
2023-04-20T14:54:52.892Z,23.63
2023-04-20T14:57:26.476Z,23.75
2023-04-20T15:00:00.045Z,23.74
2023-04-20T15:02:34.440Z,23.98
2023-04-20T15:05:11.207Z,23.70
2023-04-20T15:07:46.363Z,23.70
2023-04-20T15:10:21.397Z,23.84
2023-04-20T15:12:54.995Z,24.08
2023-04-20T15:15:41.584Z,24.22
2023-04-20T15:18:22.473Z,24.35
2023-04-20T15:20:56.686Z,24.58
2023-04-20T15:23:30.226Z,24.79
2023-04-20T15:26:04.273Z,24.79
2023-04-20T15:28:38.204Z,24.69
2023-04-20T15:31:12.393Z,24.84
2023-04-20T15:33:48.624Z,25.26
2023-04-20T15:36:23.037Z,25.03
2023-04-20T15:38:57.954Z,24.80
2023-04-20T15:41:33.311Z,24.40
2023-04-20T15:44:07.361Z,24.36
2023-04-20T15:46:41.931Z,24.65
2023-04-20T15:49:16.555Z,24.79
2023-04-20T15:51:50.585Z,24.80
2023-04-20T15:54:33.240Z,25.10
2023-04-20T15:57:07.065Z,25.23
2023-04-20T15:59:41.267Z,25.14
2023-04-20T16:02:15.155Z,25.34
2023-04-20T16:04:49.665Z,25.56
2023-04-20T16:07:25.874Z,25.59
2023-04-20T16:09:59.845Z,25.74
2023-04-20T16:12:33.495Z,25.60
2023-04-20T16:15:08.760Z,25.39
2023-04-20T16:17:42.705Z,25.27
2023-04-20T16:20:16.753Z,25.41
2023-04-20T16:22:50.778Z,25.31
2023-04-20T16:25:25.976Z,25.10
2023-04-20T16:27:59.685Z,25.16
2023-04-20T16:30:34.124Z,25.37
2023-04-20T16:33:08.036Z,25.60
2023-04-20T16:35:41.886Z,25.85
2023-04-20T16:38:15.676Z,26.06
2023-04-20T16:40:49.471Z,26.16
2023-04-20T16:43:23.537Z,26.51
2023-04-20T16:45:57.246Z,26.44
2023-04-20T16:48:30.764Z,26.64
2023-04-20T16:51:04.346Z,26.78
2023-04-20T16:53:38.174Z,27.15
2023-04-20T16:56:12.820Z,27.25
2023-04-20T16:58:47.422Z,27.35
2023-04-20T17:01:20.980Z,27.41
2023-04-20T17:03:54.649Z,27.54
2023-04-20T17:06:28.711Z,27.45
2023-04-20T17:09:07.662Z,27.62
2023-04-20T17:11:41.500Z,28.06
2023-04-20T17:14:15.211Z,28.17
2023-04-20T17:16:49.070Z,28.21
2023-04-20T17:19:23.150Z,28.38
2023-04-20T17:21:57.230Z,28.56
2023-04-20T17:24:30.946Z,28.74
2023-04-20T17:27:04.963Z,28.87
2023-04-20T17:29:38.914Z,28.88
2023-04-20T17:32:37.176Z,29.11
2023-04-20T17:35:32.311Z,29.20
2023-04-20T17:38:33.100Z,29.42
2023-04-20T17:41:21.699Z,29.49
2023-04-20T17:43:56.320Z,29.65
2023-04-20T17:46:32.971Z,29.92
2023-04-20T17:49:07.503Z,30.03
2023-04-20T17:51:41.340Z,30.15
2023-04-20T17:54:14.972Z,30.39
2023-04-20T17:56:49.007Z,30.57
2023-04-20T17:59:27.821Z,30.80
2023-04-20T18:02:02.304Z,31.01
2023-04-20T18:04:37.864Z,31.32
2023-04-20T18:07:13.708Z,31.52
2023-04-20T18:09:48.841Z,31.62
2023-04-20T18:12:23.304Z,31.95
2023-04-20T18:15:04.595Z,32.07
2023-04-20T18:17:40.157Z,32.37
2023-04-20T18:20:14.786Z,32.44
2023-04-20T18:22:52.354Z,32.53
2023-04-20T18:25:27.306Z,32.54
2023-04-20T18:28:03.989Z,32.71
2023-04-20T18:30:39.008Z,33.13
2023-04-20T18:33:15.720Z,33.27
2023-04-20T18:35:50.095Z,33.62
2023-04-20T18:38:25.688Z,33.68
2023-04-20T18:41:03.018Z,33.85
2023-04-20T18:43:38.788Z,34.23
2023-04-20T18:46:16.833Z,34.35
2023-04-20T18:48:51.710Z,34.40
2023-04-20T18:51:39.834Z,34.33
2023-04-20T18:54:18.162Z,34.37
2023-04-20T18:57:01.681Z,34.44
2023-04-20T18:59:40.393Z,34.55
2023-04-20T19:02:18.322Z,34.83
2023-04-20T19:04:54.730Z,35.02
2023-04-20T19:07:38.355Z,35.39
2023-04-20T19:10:16.313Z,35.69
2023-04-20T19:12:52.982Z,35.98
2023-04-20T19:15:41.617Z,36.08
2023-04-20T19:18:18.838Z,36.44
2023-04-20T19:20:53.915Z,36.75
2023-04-20T19:23:37.184Z,36.94
2023-04-20T19:26:13.594Z,37.19
2023-04-20T19:28:49.729Z,37.38
2023-04-20T19:31:25.869Z,37.50
2023-04-20T19:34:01.553Z,37.48
2023-04-20T19:36:37.826Z,37.62
2023-04-20T19:39:13.162Z,37.82
2023-04-20T19:41:55.403Z,37.95
2023-04-20T19:44:33.059Z,38.02
2023-04-20T19:47:19.321Z,38.02
2023-04-20T19:49:56.697Z,38.12
2023-04-20T19:52:32.855Z,37.88
2023-04-20T19:55:12.835Z,37.53
2023-04-20T19:57:46.591Z,37.54
2023-04-20T20:00:24.710Z,37.42
2023-04-20T20:03:00.199Z,37.47
2023-04-20T20:05:35.535Z,37.34
2023-04-20T20:08:09.972Z,37.31
2023-04-20T20:10:44.316Z,37.30
2023-04-20T20:13:18.672Z,37.41
2023-04-20T20:16:13.606Z,37.77
2023-04-20T20:18:49.180Z,37.80
2023-04-20T20:21:25.622Z,37.77
2023-04-20T20:23:59.661Z,37.90
2023-04-20T20:26:34.306Z,37.89
2023-04-20T20:29:08.009Z,37.89
2023-04-20T20:31:42.329Z,37.84
2023-04-20T20:34:16.798Z,37.99
2023-04-20T20:36:51.735Z,38.12
2023-04-20T20:39:25.345Z,38.14
2023-04-20T20:42:00.153Z,38.31
2023-04-20T20:44:34.627Z,38.08
2023-04-20T20:47:09.036Z,38.13
2023-04-20T20:49:42.732Z,38.08
2023-04-20T20:52:16.654Z,38.16
2023-04-20T20:54:50.571Z,38.16
2023-04-20T20:57:24.828Z,38.07
2023-04-20T20:59:58.445Z,38.09
2023-04-20T21:02:32.425Z,38.31
2023-04-20T21:05:07.370Z,38.31
2023-04-20T21:07:41.904Z,38.36
2023-04-20T21:10:16.219Z,38.55
2023-04-20T21:12:50.109Z,38.53
2023-04-20T21:15:24.093Z,38.63
2023-04-20T21:18:01.090Z,38.69
2023-04-20T21:20:35.193Z,38.80
2023-04-20T21:23:09.330Z,38.84
2023-04-20T21:25:43.322Z,39.00
2023-04-20T21:28:17.478Z,39.05
2023-04-20T21:30:51.355Z,39.27
2023-04-20T21:33:28.072Z,39.45
2023-04-20T21:36:01.990Z,39.49
2023-04-20T21:38:36.250Z,39.55
2023-04-20T21:41:09.949Z,39.61
2023-04-20T21:43:43.937Z,39.76
2023-04-20T21:46:19.453Z,39.65
2023-04-20T21:48:53.845Z,39.81
2023-04-20T21:51:28.147Z,39.86
2023-04-20T21:54:02.108Z,39.99
2023-04-20T21:56:36.193Z,39.99
2023-04-20T21:59:10.122Z,39.93
2023-04-20T22:01:43.959Z,40.05
2023-04-20T22:04:18.430Z,40.12
2023-04-20T22:06:53.764Z,40.13
2023-04-20T22:09:27.821Z,40.19
2023-04-20T22:12:02.344Z,40.21
2023-04-20T22:14:36.061Z,40.30
2023-04-20T22:17:14.774Z,40.33
2023-04-20T22:19:48.878Z,40.51
2023-04-20T22:22:22.778Z,40.57
2023-04-20T22:24:56.694Z,40.67
2023-04-20T22:27:30.684Z,40.56
2023-04-20T22:30:04.798Z,40.66
2023-04-20T22:32:39.067Z,40.71
2023-04-20T22:35:13.223Z,40.83
2023-04-20T22:37:46.876Z,40.90
2023-04-20T22:40:20.682Z,40.92
2023-04-20T22:42:54.223Z,41.08
2023-04-20T22:45:27.697Z,41.21
2023-04-20T22:48:01.940Z,41.31
2023-04-20T22:50:36.323Z,41.36
2023-04-20T22:53:10.527Z,41.50
2023-04-20T22:55:44.409Z,41.67
2023-04-20T22:58:17.849Z,41.83
2023-04-20T23:00:52.058Z,41.83
2023-04-20T23:03:26.433Z,41.86
2023-04-20T23:06:00.092Z,41.88
2023-04-20T23:08:35.095Z,41.91
2023-04-20T23:11:08.821Z,41.94
2023-04-20T23:13:42.908Z,42.08
2023-04-20T23:16:16.896Z,42.08
2023-04-20T23:18:50.609Z,42.09
2023-04-20T23:21:24.693Z,42.18
2023-04-20T23:23:59.941Z,42.30
2023-04-20T23:26:33.971Z,42.31
2023-04-20T23:29:07.900Z,42.41
2023-04-20T23:31:41.843Z,42.56
2023-04-20T23:34:15.867Z,42.62
2023-04-20T23:36:49.191Z,42.72
2023-04-20T23:39:23.547Z,42.81
2023-04-20T23:41:58.159Z,42.92
2023-04-20T23:44:31.727Z,43.05
2023-04-20T23:47:05.568Z,43.05
2023-04-20T23:49:39.448Z,43.15
2023-04-20T23:52:13.419Z,43.29
2023-04-20T23:54:47.813Z,43.41
2023-04-20T23:57:21.333Z,43.50
2023-04-20T23:59:54.796Z,43.57
